Time;durP1;ratioP1;P1;durP2;ratioP2;P2;SDS_P1;SDS_P2;PMS_P1;PMS_P2;Temp;Humidity;BMP_temperature;BMP_pressure;BME280_temperature;BME280_humidity;BME280_pressure;Samples;Min_cycle;Max_cycle;Signal;HPM_P1;HPM_P2
2022/01/29 00:01:01;;;;;;;12.00;8.60;;;2.60;99.90;;;;;;5060891;28;20175;-71
2022/01/29 00:03:27;;;;;;;15.57;8.87;;;2.70;99.90;;;;;;5061593;28;20190;-72
2022/01/29 00:05:53;;;;;;;13.50;8.13;;;2.60;99.90;;;;;;5065613;28;20297;-71
2022/01/29 00:08:19;;;;;;;11.43;7.80;;;2.60;99.90;;;;;;5070828;28;20180;-71
2022/01/29 00:10:48;;;;;;;11.67;8.50;;;2.60;99.90;;;;;;5069655;28;20187;-72
2022/01/29 00:13:13;;;;;;;12.47;7.53;;;2.60;99.90;;;;;;5064561;28;20207;-72
2022/01/29 00:15:39;;;;;;;11.20;8.83;;;2.60;99.90;;;;;;5059573;28;20262;-72
2022/01/29 00:18:05;;;;;;;11.57;8.30;;;2.50;99.90;;;;;;5060592;28;20622;-71
2022/01/29 00:20:30;;;;;;;13.97;8.57;;;2.50;99.90;;;;;;5062665;28;20197;-72
2022/01/29 00:22:56;;;;;;;11.17;7.90;;;2.50;99.90;;;;;;5067818;28;20560;-71
2022/01/29 00:25:21;;;;;;;10.30;6.97;;;2.60;99.90;;;;;;5062133;28;20203;-72
2022/01/29 00:27:47;;;;;;;12.73;8.37;;;2.60;99.90;;;;;;5070041;28;20199;-72
2022/01/29 00:30:17;;;;;;;11.17;8.33;;;2.60;99.90;;;;;;5070991;28;20543;-72
2022/01/29 00:32:43;;;;;;;12.03;8.90;;;2.60;99.90;;;;;;5069511;28;20207;-71
2022/01/29 00:35:09;;;;;;;14.10;8.53;;;2.60;99.90;;;;;;5069123;28;20199;-71
2022/01/29 00:37:35;;;;;;;14.87;8.47;;;2.60;99.90;;;;;;5061020;28;20743;-72
2022/01/29 00:40:00;;;;;;;9.50;7.87;;;2.60;99.90;;;;;;5058710;28;20183;-72
2022/01/29 00:42:26;;;;;;;16.03;9.20;;;2.70;99.90;;;;;;5067191;28;20183;-72
2022/01/29 00:44:52;;;;;;;10.60;8.37;;;2.60;99.90;;;;;;5064823;28;20314;-72
2022/01/29 00:47:17;;;;;;;15.80;10.53;;;2.60;99.90;;;;;;5070830;28;20230;-72
2022/01/29 00:49:43;;;;;;;14.73;8.70;;;2.40;99.90;;;;;;5065629;28;20184;-72
2022/01/29 00:52:10;;;;;;;12.90;8.33;;;2.40;99.90;;;;;;5061401;28;20655;-71
2022/01/29 00:54:36;;;;;;;13.57;9.00;;;2.40;99.90;;;;;;5065652;28;20184;-72
2022/01/29 00:57:01;;;;;;;11.63;8.90;;;2.30;99.90;;;;;;5067057;28;20694;-72
2022/01/29 00:59:27;;;;;;;11.77;9.60;;;2.40;99.90;;;;;;5062703;28;20202;-72
2022/01/29 01:01:53;;;;;;;14.53;9.77;;;2.50;99.90;;;;;;5073164;28;20189;-72
2022/01/29 01:04:19;;;;;;;12.30;9.20;;;2.50;99.90;;;;;;5063049;28;20279;-71
2022/01/29 01:06:44;;;;;;;10.37;8.60;;;2.60;99.90;;;;;;5060781;28;20686;-71
2022/01/29 01:09:10;;;;;;;12.03;9.40;;;2.60;99.90;;;;;;5070346;28;20629;-71
2022/01/29 01:11:36;;;;;;;13.77;9.73;;;2.50;99.90;;;;;;5063031;28;20258;-71
2022/01/29 01:14:02;;;;;;;9.30;7.47;;;2.50;99.90;;;;;;5065024;28;20176;-71
2022/01/29 01:16:27;;;;;;;11.67;8.63;;;2.50;99.90;;;;;;5059518;28;20203;-71
2022/01/29 01:18:53;;;;;;;11.67;9.20;;;2.50;99.90;;;;;;5070669;28;20658;-71
2022/01/29 01:21:19;;;;;;;13.80;10.07;;;2.50;99.90;;;;;;5062479;28;20179;-71
2022/01/29 01:23:44;;;;;;;13.33;9.63;;;2.50;99.90;;;;;;5044102;28;20665;-72
2022/01/29 01:26:10;;;;;;;12.10;8.67;;;2.50;99.90;;;;;;5066989;28;20213;-72
2022/01/29 01:28:35;;;;;;;9.67;8.53;;;2.50;99.90;;;;;;5060894;28;20180;-72
2022/01/29 01:31:01;;;;;;;11.07;8.03;;;2.50;99.90;;;;;;5061045;28;20172;-72
2022/01/29 01:33:27;;;;;;;13.60;9.20;;;2.50;99.90;;;;;;5056999;28;20592;-72
2022/01/29 01:35:57;;;;;;;15.50;9.30;;;2.50;99.90;;;;;;5064032;28;20183;-71
2022/01/29 01:38:32;;;;;;;14.10;9.03;;;2.50;99.90;;;;;;5066103;28;20653;-72
2022/01/29 01:41:02;;;;;;;14.97;10.13;;;2.40;99.90;;;;;;5065186;28;20274;-72
2022/01/29 01:43:28;;;;;;;13.37;8.90;;;2.50;99.90;;;;;;5059491;28;20340;-72
2022/01/29 01:45:54;;;;;;;17.93;10.00;;;2.50;99.90;;;;;;5070934;28;21123;-72
2022/01/29 01:48:20;;;;;;;12.53;9.47;;;2.50;99.90;;;;;;5066348;28;20208;-72
2022/01/29 01:50:46;;;;;;;16.20;9.13;;;2.40;99.90;;;;;;5075737;28;20224;-72
2022/01/29 01:53:12;;;;;;;12.07;9.00;;;2.30;99.90;;;;;;5071297;28;20194;-71
2022/01/29 01:55:38;;;;;;;11.53;9.00;;;2.30;99.90;;;;;;5070290;28;20671;-72
2022/01/29 01:58:04;;;;;;;12.43;9.40;;;2.30;99.90;;;;;;5067041;28;20223;-71
2022/01/29 02:00:30;;;;;;;12.67;9.93;;;2.40;99.90;;;;;;5068004;28;20630;-71
2022/01/29 02:02:56;;;;;;;12.07;8.97;;;2.30;99.90;;;;;;5071031;28;20304;-73
2022/01/29 02:05:22;;;;;;;12.27;9.50;;;2.20;99.90;;;;;;5063095;28;20646;-72
2022/01/29 02:07:48;;;;;;;12.47;9.57;;;2.20;99.90;;;;;;5070892;28;20204;-71
2022/01/29 02:10:14;;;;;;;11.10;9.93;;;2.30;99.90;;;;;;5068383;28;20203;-72
2022/01/29 02:12:51;;;;;;;12.97;9.50;;;2.30;99.90;;;;;;5072417;28;20183;-72
2022/01/29 02:15:19;;;;;;;12.70;9.60;;;2.30;99.90;;;;;;5071238;28;20758;-72
2022/01/29 02:17:46;;;;;;;11.63;9.33;;;2.20;99.90;;;;;;5070827;28;20195;-71
2022/01/29 02:20:13;;;;;;;11.07;9.10;;;2.20;99.90;;;;;;5069079;28;20187;-72
2022/01/29 02:22:41;;;;;;;12.77;9.03;;;2.20;99.90;;;;;;5070522;28;20266;-71
2022/01/29 02:25:26;;;;;;;11.70;8.77;;;2.30;99.90;;;;;;5067515;28;20187;-72
2022/01/29 02:27:52;;;;;;;9.00;7.93;;;2.40;99.90;;;;;;5068735;28;20256;-71
2022/01/29 02:30:18;;;;;;;15.10;8.87;;;2.30;99.90;;;;;;5071614;28;20187;-71
2022/01/29 02:32:44;;;;;;;10.30;9.10;;;2.40;99.90;;;;;;5072922;28;20253;-72
2022/01/29 02:35:10;;;;;;;11.77;9.07;;;2.40;99.90;;;;;;5070852;28;20237;-72
2022/01/29 02:37:36;;;;;;;13.60;8.93;;;2.30;99.90;;;;;;5071831;28;20199;-72
2022/01/29 02:40:02;;;;;;;15.47;9.87;;;2.30;99.90;;;;;;5070103;28;20696;-71
2022/01/29 02:42:28;;;;;;;12.67;9.47;;;2.20;99.90;;;;;;5070937;28;20187;-72
2022/01/29 02:44:54;;;;;;;12.13;8.60;;;2.10;99.90;;;;;;5063832;28;20193;-72
2022/01/29 02:47:33;;;;;;;14.53;9.37;;;2.00;99.90;;;;;;5062898;28;20610;-72
2022/01/29 02:49:58;;;;;;;14.17;9.20;;;2.10;99.90;;;;;;5061436;28;20574;-72
2022/01/29 02:52:24;;;;;;;11.20;9.30;;;2.10;99.90;;;;;;5068135;28;20175;-72
2022/01/29 02:54:50;;;;;;;12.40;9.27;;;2.00;99.90;;;;;;5064132;28;20253;-72
2022/01/29 02:57:15;;;;;;;13.43;9.10;;;2.00;99.90;;;;;;5060943;28;20230;-72
2022/01/29 02:59:41;;;;;;;11.90;9.37;;;2.00;99.90;;;;;;5072029;28;20270;-72
2022/01/29 03:02:07;;;;;;;13.37;9.50;;;1.90;99.90;;;;;;5068154;28;20322;-72
2022/01/29 03:04:32;;;;;;;12.00;9.73;;;1.90;99.90;;;;;;5063428;28;20183;-72
2022/01/29 03:06:58;;;;;;;12.07;9.63;;;1.80;99.90;;;;;;5064238;28;20604;-72
2022/01/29 03:09:24;;;;;;;10.63;9.00;;;1.70;99.90;;;;;;5067098;28;20188;-72
2022/01/29 03:11:49;;;;;;;13.47;9.70;;;1.60;99.90;;;;;;5064403;28;20266;-72
2022/01/29 03:14:15;;;;;;;11.60;9.37;;;1.50;99.90;;;;;;5066497;28;20183;-72
2022/01/29 03:16:41;;;;;;;13.97;9.13;;;1.40;99.90;;;;;;5066834;28;20272;-71
2022/01/29 03:19:07;;;;;;;10.47;8.43;;;1.30;99.90;;;;;;5063420;28;20230;-71
2022/01/29 03:21:32;;;;;;;10.97;8.57;;;1.20;99.90;;;;;;5063586;28;20183;-72
2022/01/29 03:23:58;;;;;;;12.13;9.23;;;1.20;99.90;;;;;;5063528;28;20218;-72
2022/01/29 03:26:23;;;;;;;15.50;9.13;;;1.20;99.90;;;;;;5063963;28;20307;-71
2022/01/29 03:28:49;;;;;;;16.83;9.97;;;1.20;99.90;;;;;;5067155;28;20197;-72
2022/01/29 03:31:14;;;;;;;16.33;9.80;;;1.10;99.90;;;;;;5065729;28;20179;-72
2022/01/29 03:33:40;;;;;;;15.60;9.37;;;1.10;99.90;;;;;;5062019;28;20197;-72
2022/01/29 03:36:06;;;;;;;11.87;9.13;;;1.10;99.90;;;;;;5071299;28;20184;-72
2022/01/29 03:38:32;;;;;;;13.83;10.13;;;1.10;99.90;;;;;;5070667;28;20240;-71
2022/01/29 03:40:59;;;;;;;15.07;9.77;;;1.10;99.90;;;;;;5066748;28;20240;-72
2022/01/29 03:43:29;;;;;;;16.43;10.10;;;1.10;99.90;;;;;;5067271;28;20180;-71
2022/01/29 03:45:55;;;;;;;13.80;8.80;;;1.10;99.90;;;;;;5066735;28;20247;-72
2022/01/29 03:48:21;;;;;;;12.63;10.00;;;1.10;99.90;;;;;;5062955;28;20184;-71
2022/01/29 03:50:46;;;;;;;14.47;9.30;;;1.20;99.90;;;;;;5067446;28;20175;-72
2022/01/29 03:53:12;;;;;;;9.27;8.33;;;1.20;99.90;;;;;;5065932;28;20194;-71
2022/01/29 03:55:38;;;;;;;12.70;9.37;;;1.20;99.90;;;;;;5070297;28;20191;-72
2022/01/29 03:58:03;;;;;;;13.23;9.17;;;1.30;99.90;;;;;;5068628;28;20561;-71
2022/01/29 04:00:29;;;;;;;12.33;9.33;;;1.30;99.90;;;;;;5063284;28;20234;-72
2022/01/29 04:02:54;;;;;;;15.57;9.20;;;1.40;99.90;;;;;;5064372;28;20627;-72
2022/01/29 04:05:20;;;;;;;13.93;9.30;;;1.40;99.90;;;;;;5065324;28;20180;-72
2022/01/29 04:07:46;;;;;;;14.53;10.27;;;1.50;99.90;;;;;;5072926;28;20269;-72
2022/01/29 04:10:12;;;;;;;12.70;9.23;;;1.50;99.90;;;;;;5073707;28;20234;-72
2022/01/29 04:12:43;;;;;;;12.00;9.00;;;1.60;99.90;;;;;;5081618;28;20211;-72
2022/01/29 04:15:09;;;;;;;11.23;10.00;;;1.60;99.90;;;;;;5074440;28;20697;-72
2022/01/29 04:17:35;;;;;;;12.37;9.00;;;1.60;99.90;;;;;;5069646;28;20302;-72
2022/01/29 04:20:01;;;;;;;9.57;8.57;;;1.70;99.90;;;;;;5054208;28;20645;-72
2022/01/29 04:22:27;;;;;;;9.57;8.07;;;1.70;99.90;;;;;;5068672;28;20195;-72
2022/01/29 04:24:52;;;;;;;13.80;8.67;;;1.60;99.90;;;;;;5071604;28;20194;-72
2022/01/29 04:27:22;;;;;;;11.40;8.53;;;1.60;99.90;;;;;;5071169;28;20610;-72
2022/01/29 04:30:00;;;;;;;12.30;8.73;;;1.50;99.90;;;;;;5072552;28;20183;-72
2022/01/29 04:35:04;;;;;;;12.23;8.30;;;1.50;99.90;;;;;;5061801;28;20585;-72
2022/01/29 04:37:29;;;;;;;10.43;9.13;;;1.40;99.90;;;;;;5070770;28;20211;-72
2022/01/29 04:39:55;;;;;;;9.50;8.33;;;1.40;99.90;;;;;;5069706;28;20665;-72
2022/01/29 04:42:21;;;;;;;10.73;7.73;;;1.50;99.90;;;;;;5074296;28;20183;-72
2022/01/29 04:44:46;;;;;;;12.07;8.50;;;1.50;99.90;;;;;;5065701;28;20230;-72
2022/01/29 04:47:12;;;;;;;11.03;8.10;;;1.40;99.90;;;;;;5069206;28;20226;-73
2022/01/29 04:49:37;;;;;;;8.60;7.70;;;1.50;99.90;;;;;;5074257;28;20222;-72
2022/01/29 04:52:03;;;;;;;9.40;7.23;;;1.50;99.90;;;;;;5072399;28;20209;-72
2022/01/29 04:54:29;;;;;;;12.27;7.57;;;1.50;99.90;;;;;;5065771;28;20231;-71
2022/01/29 04:56:54;;;;;;;12.87;8.43;;;1.60;99.90;;;;;;5054913;28;20253;-71
2022/01/29 04:59:20;;;;;;;12.17;8.90;;;1.60;99.90;;;;;;5070912;28;20278;-72
2022/01/29 05:01:45;;;;;;;10.87;7.67;;;1.60;99.90;;;;;;5070809;28;20184;-72
2022/01/29 05:04:11;;;;;;;11.67;8.40;;;1.60;99.90;;;;;;5071319;28;20559;-72
2022/01/29 05:06:37;;;;;;;11.10;7.40;;;1.70;99.90;;;;;;5071192;28;20243;-72
2022/01/29 05:09:05;;;;;;;10.87;7.63;;;1.80;99.90;;;;;;5069928;28;20190;-72
2022/01/29 05:11:31;;;;;;;11.23;7.77;;;1.90;99.90;;;;;;5069556;28;20183;-72
2022/01/29 05:13:57;;;;;;;12.30;8.60;;;1.80;99.90;;;;;;5069976;28;20600;-72
2022/01/29 05:27:07;;;;;;;11.57;7.67;;;1.80;99.90;;;;;;5066777;28;20720;-71
2022/01/29 05:29:33;;;;;;;10.40;8.03;;;1.70;99.90;;;;;;5069706;28;20187;-72
2022/01/29 05:32:00;;;;;;;13.00;8.00;;;1.70;99.90;;;;;;5072818;28;20182;-71
2022/01/29 05:34:26;;;;;;;10.87;8.37;;;1.70;99.90;;;;;;5071258;28;20210;-71
2022/01/29 05:36:53;;;;;;;11.60;7.00;;;1.80;99.90;;;;;;5076655;28;20194;-71
2022/01/29 05:39:19;;;;;;;9.33;7.50;;;1.80;99.90;;;;;;5069427;28;20179;-71
2022/01/29 05:41:45;;;;;;;11.77;8.53;;;1.80;99.90;;;;;;5071701;28;20209;-71
2022/01/29 05:44:11;;;;;;;13.47;8.50;;;1.80;99.90;;;;;;5070164;28;20748;-71
2022/01/29 05:46:37;;;;;;;13.03;8.17;;;1.80;99.90;;;;;;5071934;28;20242;-71
2022/01/29 05:49:02;;;;;;;8.87;7.93;;;1.80;99.90;;;;;;5071126;28;20179;-71
2022/01/29 05:51:30;;;;;;;9.10;7.13;;;1.80;99.90;;;;;;5071864;28;20187;-72
2022/01/29 05:53:59;;;;;;;11.83;8.93;;;1.80;99.90;;;;;;5073697;28;20212;-73
2022/01/29 05:56:25;;;;;;;10.50;8.50;;;1.80;99.90;;;;;;5070515;28;20210;-73
2022/01/29 05:58:51;;;;;;;11.80;8.30;;;1.90;99.90;;;;;;5081340;28;20655;-73
2022/01/29 06:01:17;;;;;;;10.87;7.80;;;1.70;99.90;;;;;;5069399;28;20187;-73
2022/01/29 06:03:42;;;;;;;11.80;8.00;;;1.70;99.90;;;;;;5066444;28;20230;-73
2022/01/29 06:06:08;;;;;;;13.07;8.60;;;1.70;99.90;;;;;;5066048;28;20256;-73
2022/01/29 06:08:34;;;;;;;10.67;7.77;;;1.70;99.90;;;;;;5074908;28;20178;-73
2022/01/29 06:10:59;;;;;;;10.30;7.80;;;1.80;99.90;;;;;;5069732;28;20187;-72
2022/01/29 06:13:25;;;;;;;9.17;7.50;;;1.90;99.90;;;;;;5070507;28;20210;-72
2022/01/29 06:15:52;;;;;;;9.57;8.00;;;1.80;99.90;;;;;;5069166;28;20676;-73
2022/01/29 06:18:20;;;;;;;10.77;8.23;;;1.80;99.90;;;;;;5071241;28;20182;-72
2022/01/29 06:20:56;;;;;;;10.70;7.87;;;1.90;99.90;;;;;;5072121;28;20183;-72
2022/01/29 06:23:29;;;;;;;9.63;7.40;;;1.80;99.90;;;;;;5045755;28;20233;-72
2022/01/29 06:25:55;;;;;;;10.60;8.33;;;1.90;99.90;;;;;;5062729;28;20216;-73
2022/01/29 06:28:21;;;;;;;9.03;7.90;;;2.00;99.90;;;;;;5067687;28;20179;-73
2022/01/29 06:30:46;;;;;;;9.50;7.10;;;2.00;99.90;;;;;;5066042;28;20662;-73
2022/01/29 06:33:13;;;;;;;8.60;7.37;;;2.00;99.90;;;;;;5073083;28;20179;-73
2022/01/29 06:35:41;;;;;;;8.40;6.97;;;2.00;99.90;;;;;;5073639;28;20673;-73
2022/01/29 06:38:08;;;;;;;12.20;7.43;;;2.10;99.90;;;;;;5069464;28;20555;-73
2022/01/29 06:40:35;;;;;;;11.43;8.53;;;2.30;99.90;;;;;;5071264;28;20566;-74
2022/01/29 06:43:01;;;;;;;11.77;7.90;;;2.30;99.90;;;;;;5069409;28;20187;-73
2022/01/29 06:45:28;;;;;;;9.27;8.30;;;2.20;99.90;;;;;;5069403;28;20866;-73
2022/01/29 06:47:54;;;;;;;8.10;7.23;;;2.10;99.90;;;;;;5072164;28;20225;-73
2022/01/29 06:50:20;;;;;;;8.63;7.03;;;2.20;99.90;;;;;;5069949;28;20220;-72
2022/01/29 06:52:46;;;;;;;9.07;6.20;;;2.20;99.90;;;;;;5061971;28;20704;-72
2022/01/29 06:55:11;;;;;;;11.27;7.23;;;2.30;99.90;;;;;;5060734;28;20191;-72
2022/01/29 06:57:37;;;;;;;7.17;6.03;;;2.40;99.90;;;;;;5066543;28;20222;-72
2022/01/29 07:00:07;;;;;;;7.33;6.57;;;2.40;99.90;;;;;;5064724;28;20180;-72
2022/01/29 07:02:33;;;;;;;8.63;6.73;;;2.30;99.90;;;;;;5064680;28;20321;-72
2022/01/29 07:04:58;;;;;;;7.53;6.33;;;2.30;99.90;;;;;;5060672;28;20688;-72
2022/01/29 07:07:24;;;;;;;10.17;7.47;;;2.30;99.90;;;;;;5065591;28;20207;-72
2022/01/29 07:09:50;;;;;;;8.50;5.80;;;2.30;99.90;;;;;;5070133;28;20174;-73
2022/01/29 07:12:15;;;;;;;9.23;5.17;;;2.40;99.90;;;;;;5067262;28;20183;-72
2022/01/29 07:14:41;;;;;;;6.80;5.37;;;2.60;99.90;;;;;;5066527;28;20175;-72
2022/01/29 07:17:09;;;;;;;7.03;5.87;;;2.70;99.90;;;;;;5065031;28;20207;-72
2022/01/29 07:19:35;;;;;;;7.20;6.30;;;2.80;99.90;;;;;;5064487;28;20198;-72
2022/01/29 07:22:00;;;;;;;7.90;6.10;;;2.80;99.90;;;;;;5065178;28;20662;-74
2022/01/29 07:24:26;;;;;;;9.70;7.93;;;2.70;99.90;;;;;;5058713;28;20202;-74
2022/01/29 07:26:52;;;;;;;7.20;5.53;;;2.80;99.90;;;;;;5044968;28;20286;-72
2022/01/29 07:29:17;;;;;;;5.33;4.83;;;2.90;99.90;;;;;;5041120;28;20181;-71
2022/01/29 07:31:43;;;;;;;10.83;7.00;;;2.90;99.90;;;;;;5043933;28;20172;-72
2022/01/29 07:34:08;;;;;;;7.27;6.57;;;2.90;99.90;;;;;;5046704;28;20186;-72
2022/01/29 07:36:34;;;;;;;8.53;6.20;;;2.80;99.90;;;;;;5046774;28;20203;-72
2022/01/29 07:38:59;;;;;;;6.23;5.63;;;2.80;99.90;;;;;;5046759;28;20180;-72
2022/01/29 07:41:25;;;;;;;8.03;6.50;;;2.90;99.90;;;;;;5025836;28;20181;-72
2022/01/29 07:43:51;;;;;;;8.20;6.73;;;2.90;99.90;;;;;;5044196;28;20176;-72
2022/01/29 07:46:16;;;;;;;9.17;7.23;;;2.80;99.90;;;;;;5042065;28;20216;-72
2022/01/29 07:48:42;;;;;;;7.43;6.73;;;2.90;99.90;;;;;;5043553;28;20184;-72
2022/01/29 07:51:08;;;;;;;7.67;6.03;;;3.00;99.90;;;;;;5052657;28;20254;-72
2022/01/29 07:53:33;;;;;;;4.43;4.03;;;2.90;99.90;;;;;;5051625;28;20238;-73
2022/01/29 07:55:59;;;;;;;6.37;5.63;;;3.00;99.90;;;;;;5052078;28;20263;-72
2022/01/29 07:58:24;;;;;;;6.77;6.17;;;3.00;99.90;;;;;;5051083;28;20183;-73
2022/01/29 08:00:50;;;;;;;7.10;6.40;;;3.10;99.90;;;;;;5046823;28;20647;-72
2022/01/29 08:03:16;;;;;;;8.57;6.80;;;3.00;99.90;;;;;;5046805;28;20195;-73
2022/01/29 08:05:41;;;;;;;9.67;6.03;;;2.90;99.90;;;;;;5043320;28;20187;-73
2022/01/29 08:08:07;;;;;;;7.17;6.47;;;3.00;99.90;;;;;;5045069;28;20191;-72
2022/01/29 08:10:33;;;;;;;7.40;6.27;;;3.00;99.90;;;;;;5044662;28;20184;-73
2022/01/29 08:12:58;;;;;;;7.47;5.93;;;3.00;99.90;;;;;;5044926;28;20250;-72
2022/01/29 08:15:24;;;;;;;7.10;6.30;;;3.00;99.90;;;;;;5049306;28;20176;-72
2022/01/29 08:17:49;;;;;;;7.20;5.83;;;3.10;99.90;;;;;;5045785;28;20709;-73
2022/01/29 08:20:15;;;;;;;7.13;6.40;;;3.20;99.90;;;;;;5048384;28;20188;-72
2022/01/29 08:22:41;;;;;;;5.70;5.00;;;3.30;99.90;;;;;;5049057;28;20184;-72
2022/01/29 08:25:07;;;;;;;2.97;2.73;;;3.40;99.90;;;;;;5058030;28;20187;-72
2022/01/29 08:27:33;;;;;;;6.63;5.80;;;3.50;99.90;;;;;;5065400;28;20206;-73
2022/01/29 08:29:58;;;;;;;6.20;4.87;;;3.70;99.90;;;;;;5067973;28;20653;-74
2022/01/29 08:32:24;;;;;;;6.43;5.07;;;3.90;99.90;;;;;;5050166;28;20549;-72
2022/01/29 08:34:50;;;;;;;7.03;6.13;;;4.00;99.90;;;;;;5073439;28;20174;-72
2022/01/29 08:37:15;;;;;;;5.97;5.37;;;4.10;99.90;;;;;;5064848;28;20203;-72
2022/01/29 08:39:41;;;;;;;7.73;5.43;;;4.00;99.90;;;;;;5066575;28;20753;-71
2022/01/29 08:42:08;;;;;;;5.23;4.63;;;3.90;99.90;;;;;;5069610;28;20178;-72
2022/01/29 08:44:34;;;;;;;4.27;3.93;;;4.00;99.90;;;;;;5061058;28;20526;-72
2022/01/29 08:47:00;;;;;;;8.57;5.53;;;4.10;99.90;;;;;;5063396;28;20210;-72
2022/01/29 08:49:26;;;;;;;5.17;4.57;;;3.90;99.90;;;;;;5062832;28;20554;-72
2022/01/29 08:51:52;;;;;;;4.83;3.67;;;3.70;99.90;;;;;;5087583;28;20543;-72
2022/01/29 08:54:18;;;;;;;5.77;5.00;;;3.80;99.90;;;;;;5067058;28;20537;-69
2022/01/29 08:56:44;;;;;;;5.13;4.63;;;3.70;99.90;;;;;;5066706;28;20282;-70
2022/01/29 08:59:10;;;;;;;4.93;4.50;;;3.80;99.90;;;;;;5068907;28;20262;-69
2022/01/29 09:01:36;;;;;;;5.30;4.80;;;3.90;99.90;;;;;;5069878;28;20274;-70
2022/01/29 09:04:02;;;;;;;4.70;4.10;;;3.90;99.90;;;;;;5067790;28;20180;-70
2022/01/29 09:06:28;;;;;;;4.40;4.00;;;4.00;99.90;;;;;;5074895;28;20215;-71
2022/01/29 09:08:53;;;;;;;5.83;4.67;;;4.10;99.90;;;;;;5075743;28;20181;-70
2022/01/29 09:11:19;;;;;;;6.70;4.30;;;4.10;99.90;;;;;;5071905;28;20589;-70
2022/01/29 09:13:46;;;;;;;5.80;4.60;;;4.20;99.90;;;;;;5067933;28;20202;-70
2022/01/29 09:16:12;;;;;;;4.80;4.40;;;4.20;99.90;;;;;;5066249;28;20183;-70
2022/01/29 09:18:37;;;;;;;4.40;3.87;;;4.30;99.90;;;;;;5071711;28;20579;-71
2022/01/29 09:21:03;;;;;;;6.27;4.23;;;4.30;99.90;;;;;;5070588;28;20214;-70
2022/01/29 09:23:29;;;;;;;4.40;4.10;;;4.40;99.90;;;;;;5065428;28;20202;-70
2022/01/29 09:25:55;;;;;;;5.00;4.50;;;4.40;99.90;;;;;;5068248;28;20216;-70
2022/01/29 09:28:22;;;;;;;5.77;4.60;;;4.60;99.90;;;;;;5071683;28;20175;-69
2022/01/29 09:30:49;;;;;;;4.83;4.33;;;4.50;99.90;;;;;;5063834;28;20180;-70
2022/01/29 09:33:15;;;;;;;5.90;4.10;;;4.50;99.90;;;;;;5070922;28;20183;-70
2022/01/29 09:35:42;;;;;;;5.23;2.97;;;4.40;99.90;;;;;;5070399;28;20181;-70
2022/01/29 09:38:09;;;;;;;6.17;4.63;;;4.30;99.90;;;;;;5067064;28;20229;-69
2022/01/29 09:40:35;;;;;;;5.07;3.97;;;4.40;99.90;;;;;;5067792;28;20184;-70
2022/01/29 09:43:03;;;;;;;4.88;4.35;;;4.50;99.90;;;;;;5063551;28;20182;-70
2022/01/29 09:45:29;;;;;;;4.87;4.40;;;4.60;99.90;;;;;;5062409;28;20171;-70
2022/01/29 09:48:01;;;;;;;6.15;4.35;;;4.40;99.90;;;;;;5064671;28;20214;-70
2022/01/29 09:50:36;;;;;;;3.58;3.15;;;4.40;99.90;;;;;;5066447;28;20671;-70
2022/01/29 09:53:02;;;;;;;4.97;3.57;;;4.30;99.90;;;;;;5071341;28;20241;-69
2022/01/29 09:55:29;;;;;;;5.47;4.30;;;4.40;99.90;;;;;;5069476;28;20672;-70
2022/01/29 09:57:55;;;;;;;4.78;4.28;;;4.40;99.90;;;;;;5071450;28;20221;-70
2022/01/29 10:00:22;;;;;;;3.03;2.83;;;4.40;99.90;;;;;;5072120;28;20187;-70
2022/01/29 10:03:09;;;;;;;5.17;4.13;;;4.30;99.90;;;;;;5054911;28;20183;-70
2022/01/29 10:05:36;;;;;;;4.45;4.07;;;4.20;99.90;;;;;;5068283;28;20661;-70
2022/01/29 10:08:03;;;;;;;5.43;4.20;;;4.30;99.90;;;;;;5075917;28;20607;-69
2022/01/29 10:10:28;;;;;;;4.57;4.00;;;4.40;99.90;;;;;;5052932;28;20188;-70
2022/01/29 10:12:54;;;;;;;4.33;3.93;;;4.40;99.90;;;;;;5072906;28;20231;-70
2022/01/29 10:15:22;;;;;;;3.53;3.10;;;4.40;99.90;;;;;;5071336;28;20237;-70
2022/01/29 10:17:47;;;;;;;6.63;3.50;;;4.50;99.90;;;;;;5073334;28;20233;-70
2022/01/29 10:20:20;;;;;;;4.47;3.90;;;4.50;99.90;;;;;;5074947;28;20620;-70
2022/01/29 10:22:54;;;;;;;5.57;3.85;;;4.50;99.90;;;;;;5073606;28;20206;-70
2022/01/29 10:25:21;;;;;;;4.47;3.85;;;4.60;99.90;;;;;;5070966;28;20587;-70
2022/01/29 10:28:10;;;;;;;3.45;3.13;;;4.70;99.90;;;;;;5069367;28;20211;-70
2022/01/29 10:30:48;;;;;;;6.05;4.13;;;4.80;99.90;;;;;;5070644;28;20685;-70
2022/01/29 10:33:27;;;;;;;3.40;3.10;;;4.80;99.90;;;;;;5067873;28;20270;-69
2022/01/29 10:35:55;;;;;;;4.37;3.87;;;4.80;99.90;;;;;;5073924;28;20175;-71
2022/01/29 10:38:22;;;;;;;4.50;3.65;;;4.70;99.90;;;;;;5053187;28;20266;-71
2022/01/29 10:41:11;;;;;;;2.93;2.73;;;4.60;99.90;;;;;;5074058;28;20182;-70
2022/01/29 10:43:52;;;;;;;3.63;3.07;;;4.60;99.90;;;;;;5074259;28;20759;-71
2022/01/29 10:46:29;;;;;;;3.97;3.57;;;4.60;99.90;;;;;;5068803;28;20218;-70
2022/01/29 10:48:56;;;;;;;7.17;4.23;;;4.70;99.90;;;;;;5069185;28;20236;-70
2022/01/29 10:51:22;;;;;;;3.40;3.00;;;4.70;99.90;;;;;;5074597;28;20171;-71
2022/01/29 10:53:48;;;;;;;5.90;4.87;;;4.60;99.90;;;;;;5072667;28;20183;-71
2022/01/29 10:56:14;;;;;;;5.50;3.77;;;4.60;99.90;;;;;;5079114;28;20217;-71
2022/01/29 10:58:43;;;;;;;4.73;4.07;;;4.60;99.90;;;;;;5060774;28;20195;-70
2022/01/29 11:01:17;;;;;;;7.55;5.05;;;4.60;99.90;;;;;;5077816;28;20265;-70
2022/01/29 11:03:44;;;;;;;3.77;3.10;;;4.60;99.90;;;;;;5069749;28;20199;-70
2022/01/29 11:06:20;;;;;;;3.70;3.40;;;4.60;99.90;;;;;;5072812;28;20513;-71
2022/01/29 11:08:47;;;;;;;4.10;3.70;;;4.70;99.90;;;;;;5075086;28;20182;-71
2022/01/29 11:11:14;;;;;;;5.30;3.88;;;4.70;99.90;;;;;;5070895;28;20601;-70
2022/01/29 11:13:42;;;;;;;7.60;5.28;;;4.70;99.90;;;;;;5072094;28;20537;-71
2022/01/29 11:16:08;;;;;;;4.63;4.13;;;4.60;99.90;;;;;;5072914;28;20589;-71
2022/01/29 11:18:34;;;;;;;5.17;3.13;;;4.70;99.90;;;;;;5052485;28;20183;-71
2022/01/29 11:21:01;;;;;;;3.67;3.20;;;4.80;99.90;;;;;;5069886;28;20179;-70
2022/01/29 11:23:31;;;;;;;5.20;4.70;;;4.90;99.90;;;;;;5066445;28;20203;-70
2022/01/29 11:25:59;;;;;;;4.77;4.33;;;5.00;99.90;;;;;;5073413;28;20203;-71
2022/01/29 11:28:27;;;;;;;3.50;3.20;;;5.10;99.90;;;;;;5070476;28;20179;-70
2022/01/29 11:31:12;;;;;;;6.28;4.70;;;5.10;99.90;;;;;;5074156;28;20739;-70
2022/01/29 11:34:00;;;;;;;4.90;4.38;;;5.30;99.90;;;;;;5072339;28;20537;-70
2022/01/29 11:36:47;;;;;;;5.07;4.57;;;5.30;99.90;;;;;;5073053;28;20199;-71
2022/01/29 11:39:24;;;;;;;5.82;4.43;;;5.30;99.90;;;;;;5067174;28;20528;-71
2022/01/29 11:42:17;;;;;;;4.30;3.90;;;5.50;99.90;;;;;;5073136;28;20182;-70
2022/01/29 11:44:45;;;;;;;4.70;4.18;;;5.50;99.90;;;;;;5033962;28;20184;-70
2022/01/29 11:47:23;;;;;;;4.00;3.60;;;5.60;99.90;;;;;;5064661;28;20220;-70
2022/01/29 11:49:50;;;;;;;4.25;3.65;;;5.60;99.90;;;;;;5072789;28;20175;-70
2022/01/29 11:52:24;;;;;;;4.15;3.55;;;5.80;99.90;;;;;;5052505;28;20179;-71
2022/01/29 11:55:02;;;;;;;5.95;3.88;;;5.80;99.90;;;;;;5073313;28;20243;-71
2022/01/29 11:57:28;;;;;;;4.03;3.63;;;5.80;99.90;;;;;;5073141;28;20708;-72
2022/01/29 11:59:53;;;;;;;5.10;4.65;;;5.90;99.90;;;;;;5068643;28;20206;-71
2022/01/29 12:02:19;;;;;;;3.78;3.33;;;5.90;99.90;;;;;;5071223;28;20190;-71
2022/01/29 12:04:51;;;;;;;3.90;3.00;;;6.30;99.90;;;;;;5082331;28;20174;-71
2022/01/29 12:07:28;;;;;;;4.93;3.67;;;6.70;99.90;;;;;;5070332;28;20206;-71
2022/01/29 12:10:14;;;;;;;3.50;2.97;;;6.90;99.90;;;;;;5061074;28;20316;-71
2022/01/29 12:12:44;;;;;;;4.05;3.70;;;7.00;99.90;;;;;;5062977;28;20232;-71
2022/01/29 12:15:10;;;;;;;6.93;3.92;;;6.90;99.90;;;;;;5073197;28;20312;-71
2022/01/29 12:17:46;;;;;;;3.35;3.05;;;6.90;99.90;;;;;;5065802;28;20297;-70
2022/01/29 12:20:14;;;;;;;4.68;3.58;;;6.90;99.90;;;;;;5046543;28;20676;-71
2022/01/29 12:22:42;;;;;;;3.50;3.20;;;6.80;99.90;;;;;;5072389;28;20221;-71
2022/01/29 12:25:10;;;;;;;3.22;2.92;;;6.80;99.90;;;;;;5070271;28;20201;-71
2022/01/29 12:27:55;;;;;;;2.42;2.25;;;6.70;99.90;;;;;;5049829;28;20720;-71
2022/01/29 12:30:31;;;;;;;2.97;2.70;;;6.70;99.90;;;;;;5066931;28;20263;-71
2022/01/29 12:32:58;;;;;;;2.95;2.75;;;6.70;99.90;;;;;;5065660;28;20178;-71
2022/01/29 12:35:37;;;;;;;4.00;3.50;;;6.70;99.90;;;;;;5071116;28;20172;-71
2022/01/29 12:38:08;;;;;;;3.83;2.92;;;6.60;99.90;;;;;;5063530;28;20277;-71
2022/01/29 12:40:39;;;;;;;2.85;2.65;;;6.60;99.90;;;;;;5066246;28;20236;-70
2022/01/29 12:43:24;;;;;;;3.08;2.80;;;6.50;99.90;;;;;;5069481;28;20188;-70
2022/01/29 12:45:51;;;;;;;2.50;2.30;;;6.40;99.90;;;;;;5068665;28;20188;-71
2022/01/29 12:48:17;;;;;;;2.00;1.90;;;6.40;99.90;;;;;;5065698;28;20246;-71
2022/01/29 12:50:44;;;;;;;1.88;1.77;;;6.40;99.90;;;;;;5067699;28;20233;-71
2022/01/29 12:53:19;;;;;;;2.67;2.47;;;6.20;99.90;;;;;;5061809;28;20194;-70
2022/01/29 12:55:59;;;;;;;3.20;2.30;;;6.10;99.90;;;;;;5065929;28;20176;-71
2022/01/29 12:58:43;;;;;;;1.65;1.63;;;6.00;99.90;;;;;;5071041;28;20261;-71
2022/01/29 13:01:11;;;;;;;2.97;2.78;;;6.10;99.90;;;;;;5064057;28;20208;-70
2022/01/29 13:03:38;;;;;;;2.92;2.67;;;6.20;99.90;;;;;;5066294;28;20287;-73
2022/01/29 13:06:15;;;;;;;4.22;3.03;;;6.30;99.90;;;;;;5068950;28;20222;-73
2022/01/29 13:08:41;;;;;;;3.72;2.30;;;6.30;99.90;;;;;;5069428;28;20246;-70